Latest Coastal Weather Observations for Holmes Reef

IDQ60701

Issued at 7:52 pm EST Friday 22 November 2019 (issued every 10 minutes, with the page automatically refreshed every 10 minutes)

About coastal observations | Map of coastal stations | Coastal observations for QLD | Marine services | Other Formats
Station Details ID: 200732 Name: HOLMES REEF Lat: -16.47 Lon: 147.87 Height: 1.9 m
Data from the previous 72 hours. | See also: Recent months at Holmes Reef
Date/Time
EST
Wind Sea
Height
m
Swell Vis
km
Cloud Weather Temp
°C
Press
hPa
Rain since
9am
mm
Dir  Spd
kts
Gust
kts
Height
m
Period
s
Dir
22/07:30pm ESE 19 22 - - - - - - - 26.0 1012.7 -
22/07:00pm SE 18 20 - - - - - - - 26.2 1012.6 -
22/06:30pm ESE 18 22 - - - - - - - 26.2 1012.4 -
22/06:00pm SE 16 19 - - - - - - - 26.7 1012.1 -
22/05:30pm SE 16 18 - - - - - - - 26.6 1011.9 -
22/05:00pm SE 15 17 - - - - - - - 26.4 1011.7 -
22/04:30pm SE 13 16 - - - - - - - 26.8 1011.5 -
22/04:00pm SE 15 17 - - - - - - - 26.4 1011.4 -
22/03:30pm SE 13 15 - - - - - - - 26.6 1011.2 -
22/03:00pm SE 14 16 - - - - - - - 26.4 1011.3 -
22/02:30pm SE 13 15 - - - - - - - 26.4 1011.3 -
22/02:00pm SE 13 15 - - - - - - - 26.5 1011.5 -
22/01:30pm SE 11 14 - - - - - - - 26.5 1011.7 -
22/01:00pm SE 11 13 - - - - - - - 26.5 1011.9 -
22/12:30pm SE 11 13 - - - - - - - 26.4 1012.3 -
22/12:00pm ESE 11 14 - - - - - - - 26.3 1012.7 -
22/11:30am ESE 11 14 - - - - - - - 26.3 1013.1 -
22/11:00am ESE 11 13 - - - - - - - 26.4 1013.3 -
22/10:30am ESE 12 15 - - - - - - - 26.4 1013.5 -
22/10:00am ESE 11 14 - - - - - - - 26.4 1013.5 -
22/09:30am ESE 12 15 - - - - - - - 26.4 1013.7 -
22/09:00am ESE 11 15 - - - - - - - 26.3 1013.9 -
22/08:30am ESE 12 14 - - - - - - - 26.3 1013.8 -
22/08:00am ESE 11 13 - - - - - - - 26.3 1013.7 -
22/07:30am ESE 14 16 - - - - - - - 26.2 1013.4 -
22/07:00am E 15 18 - - - - - - - 26.2 1013.1 -
22/06:30am E 15 17 - - - - - - - 25.9 1012.5 -
22/06:00am E 15 18 - - - - - - - 25.7 1012.2 -
22/05:30am E 16 19 - - - - - - - 25.7 1012.0 -
22/05:00am E 15 18 - - - - - - - 25.6 1011.6 -
22/04:30am E 16 19 - - - - - - - 25.6 1011.3 -
22/04:00am E 16 19 - - - - - - - 25.5 1011.3 -
22/03:30am E 16 19 - - - - - - - 25.6 1011.3 -
22/03:00am ESE 17 19 - - - - - - - 25.6 1011.2 -
22/02:30am ESE 16 19 - - - - - - - 25.3 1011.2 -
22/02:00am ESE 17 19 - - - - - - - 25.3 1011.3 -
22/01:30am ESE 18 21 - - - - - - - 25.3 1011.2 -
22/01:00am ESE 19 22 - - - - - - - 25.3 1011.6 -
22/12:30am ESE 18 20 - - - - - - - 25.6 1011.8 -
22/12:00am ESE 19 22 - - - - - - - 25.9 1012.0 -
 
Date/Time
EST
Wind Sea
Height
m
Swell Vis
km
Cloud Weather Temp
°C
Press
hPa
Rain since
9am
mm
Dir  Spd
kts
Gust
kts
Height
m
Period
s
Dir
21/11:30pm ESE 20 23 - - - - - - - 25.7 1012.1 -
21/11:00pm ESE 19 23 - - - - - - - 25.9 1012.2 -
21/10:30pm ESE 19 23 - - - - - - - 25.9 1012.4 -
21/10:00pm ESE 20 22 - - - - - - - 25.9 1012.5 -
21/09:30pm ESE 18 21 - - - - - - - 26.4 1012.4 -
21/09:00pm ESE 16 19 - - - - - - - 26.2 1012.2 -
21/08:30pm ESE 17 19 - - - - - - - 26.1 1012.2 -
21/08:00pm ESE 14 16 - - - - - - - 26.2 1012.0 -
21/07:30pm ESE 14 16 - - - - - - - 26.0 1011.8 -
21/07:00pm SE 13 15 - - - - - - - 26.1 1011.6 -
21/06:30pm ESE 14 16 - - - - - - - 26.2 1011.4 -
21/06:00pm ESE 14 16 - - - - - - - 26.3 1011.3 -
21/05:30pm SE 14 17 - - - - - - - 26.3 1011.1 -
21/05:00pm SE 15 16 - - - - - - - 26.4 1010.9 -
21/04:30pm SE 14 16 - - - - - - - 26.4 1010.7 -
21/04:00pm ESE 14 16 - - - - - - - 26.3 1010.7 -
21/03:30pm ESE 15 16 - - - - - - - 26.6 1010.8 -
21/03:00pm ESE 15 16 - - - - - - - 26.2 1010.9 -
21/02:30pm SE 15 17 - - - - - - - 26.4 1011.0 -
21/02:00pm ESE 13 15 - - - - - - - 26.5 1011.2 -
21/01:30pm ESE 12 14 - - - - - - - 26.3 1011.5 -
21/01:00pm SE 11 14 - - - - - - - 26.3 1011.8 -
21/12:30pm ESE 13 15 - - - - - - - 26.5 1012.1 -
21/12:00pm ESE 13 15 - - - - - - - 26.2 1012.3 -
21/11:30am ESE 13 15 - - - - - - - 26.4 1012.7 -
21/11:00am ESE 13 15 - - - - - - - 26.2 1012.8 -
21/10:30am ESE 13 15 - - - - - - - 26.3 1012.9 -
21/10:00am ESE 13 15 - - - - - - - 26.3 1013.1 -
21/09:30am ESE 13 15 - - - - - - - 26.2 1013.2 -
21/09:00am ESE 12 14 - - - - - - - 26.3 1013.2 -
21/08:30am ESE 14 16 - - - - - - - 26.3 1013.1 -
21/08:00am ESE 14 16 - - - - - - - 26.2 1013.1 -
21/07:30am ESE 13 15 - - - - - - - 26.2 1012.9 -
21/07:00am ESE 14 17 - - - - - - - 26.1 1012.8 -
21/06:30am ESE 14 17 - - - - - - - 26.0 1012.4 -
21/06:00am E 9 12 - - - - - - - 25.7 1012.1 -
21/05:30am E 9 10 - - - - - - - 25.7 1011.7 -
21/05:00am E 10 13 - - - - - - - 25.9 1011.4 -
21/04:30am E 12 15 - - - - - - - 25.9 1011.1 -
21/04:00am E 13 15 - - - - - - - 26.1 1010.9 -
21/03:30am E 12 14 - - - - - - - 25.9 1010.7 -
21/03:00am E 14 18 - - - - - - - 25.7 1010.5 -
21/02:30am E 15 17 - - - - - - - 25.7 1010.3 -
21/02:00am E 15 17 - - - - - - - 25.7 1010.4 -
21/01:30am E 16 18 - - - - - - - 25.7 1010.7 -
21/01:00am E 15 17 - - - - - - - 25.9 1010.9 -
21/12:30am ESE 15 18 - - - - - - - 25.7 1011.1 -
21/12:00am E 16 18 - - - - - - - 26.0 1011.5 -
 
Date/Time
EST
Wind Sea
Height
m
Swell Vis
km
Cloud Weather Temp
°C
Press
hPa
Rain since
9am
mm
Dir  Spd
kts
Gust
kts
Height
m
Period
s
Dir
20/11:30pm E 16 17 - - - - - - - 25.7 1011.8 -
20/11:00pm ESE 17 19 - - - - - - - 25.9 1011.9 -
20/10:30pm ESE 17 19 - - - - - - - 26.1 1011.9 -
20/10:00pm ESE 17 19 - - - - - - - 25.9 1011.8 -
20/09:30pm ESE 16 19 - - - - - - - 25.9 1011.6 -
20/09:00pm ESE 15 17 - - - - - - - 26.4 1011.3 -
20/08:30pm ESE 16 18 - - - - - - - 26.5 1011.1 -
20/08:00pm ESE 15 17 - - - - - - - 26.2 1011.1 -
20/07:30pm SE 14 16 - - - - - - - 26.5 1011.1 -
20/07:00pm SE 14 16 - - - - - - - 26.2 1010.8 -
20/06:30pm SE 13 15 - - - - - - - 26.3 1010.6 -
20/06:00pm SE 14 15 - - - - - - - 26.4 1010.5 -
20/05:30pm SE 12 14 - - - - - - - 26.5 1010.5 -
20/05:00pm SE 13 14 - - - - - - - 26.8 1010.1 -
20/04:30pm SE 12 14 - - - - - - - 26.9 1009.8 -
20/04:00pm SE 12 15 - - - - - - - 26.9 1009.7 -
20/03:30pm SSE 12 14 - - - - - - - 27.2 1009.7 -
20/03:00pm SSE 12 13 - - - - - - - 27.5 1010.1 -
20/02:30pm SE 10 12 - - - - - - - 27.2 1010.3 -
20/02:00pm SSE 10 11 - - - - - - - 27.2 1010.5 -
20/01:30pm SSE 10 11 - - - - - - - 27.0 1010.6 -
20/01:00pm SE 9 11 - - - - - - - 26.8 1010.9 -
20/12:30pm SSE 10 12 - - - - - - - 27.0 1011.3 -
20/12:00pm SSE 9 11 - - - - - - - 27.3 1011.5 -
20/11:30am SE 8 9 - - - - - - - 26.9 1011.7 -
20/11:00am ESE 8 10 - - - - - - - 26.6 1011.8 -
20/10:30am ESE 8 9 - - - - - - - 26.6 1011.8 -
20/10:00am ESE 10 12 - - - - - - - 26.6 1011.9 -
20/09:30am E 9 11 - - - - - - - 26.7 1012.0 -
20/09:00am E 9 10 - - - - - - - 26.5 1012.1 -
20/08:30am E 11 13 - - - - - - - 26.3 1012.2 -
20/08:00am E 11 13 - - - - - - - 26.4 1012.0 -
20/07:30am E 11 14 - - - - - - - 26.1 1011.8 -
20/07:00am E 11 13 - - - - - - - 26.0 1011.8 -
20/06:30am E 12 14 - - - - - - - 26.3 1011.5 -
20/06:00am E 10 12 - - - - - - - 25.9 1011.1 -
20/05:30am E 11 13 - - - - - - - 25.8 1010.8 -
20/05:00am E 11 14 - - - - - - - 25.7 1010.6 -
20/04:30am E 11 13 - - - - - - - 25.7 1010.6 -
20/04:00am E 10 13 - - - - - - - 25.7 1010.5 -
20/03:30am E 11 13 - - - - - - - 25.7 1010.4 -
20/03:00am E 10 12 - - - - - - - 25.8 1010.4 -
20/02:30am E 11 13 - - - - - - - 25.7 1010.6 -
20/02:00am E 12 14 - - - - - - - 25.8 1010.8 -
20/01:30am E 13 14 - - - - - - - 25.8 1011.1 -
20/01:00am E 12 14 - - - - - - - 25.8 1011.5 -
20/12:30am E 13 16 - - - - - - - 25.7 1011.9 -
20/12:00am E 14 16 - - - - - - - 26.0 1012.2 -
 
Date/Time
EST
Wind Sea
Height
m
Swell Vis
km
Cloud Weather Temp
°C
Press
hPa
Rain since
9am
mm
Dir  Spd
kts
Gust
kts
Height
m
Period
s
Dir
19/11:30pm E 14 16 - - - - - - - 25.9 1012.6 -
19/11:00pm E 14 16 - - - - - - - 26.2 1012.8 -
19/10:30pm E 15 16 - - - - - - - 26.1 1013.0 -
19/10:00pm E 17 19 - - - - - - - 26.2 1013.0 -
19/09:30pm E 17 19 - - - - - - - 26.2 1012.8 -
19/09:00pm E 16 18 - - - - - - - 26.2 1012.6 -
19/08:30pm E 15 17 - - - - - - - 26.2 1012.3 -
19/08:00pm E 15 17 - - - - - - - 26.2 1011.8 -

Other formats

Comma delimited format used in spreadsheet applications
http://www.bom.gov.au/fwo/IDQ60701/IDQ60701.94289.axf

JavaScript Object Notation format (JSON) in row-major order
http://www.bom.gov.au/fwo/IDQ60701/IDQ60701.94289.json

Data quality

Most of these data are generated automatically and are frequently updated. Quality checks on data are not normally performed. It is possible for incorrect values to appear. Refer to information at About Latest Weather Observations and please check the disclaimer before using these data.